createdAt,value
2022-08-20T00:00:43.000Z,99.99
2022-08-20T00:01:43.000Z,99.99
2022-08-20T00:02:43.000Z,99.99
2022-08-20T00:03:43.000Z,99.99
2022-08-20T00:04:43.000Z,99.99
2022-08-20T00:05:43.000Z,99.99
2022-08-20T00:06:43.000Z,99.99
2022-08-20T00:07:43.000Z,99.99
2022-08-20T00:08:43.000Z,99.99
2022-08-20T00:09:43.000Z,99.99
2022-08-20T00:10:43.000Z,99.99
2022-08-20T00:11:43.000Z,99.99
2022-08-20T00:12:43.000Z,99.99
2022-08-20T00:13:43.000Z,99.99
2022-08-20T00:14:43.000Z,99.99
2022-08-20T00:15:43.000Z,99.99
2022-08-20T00:16:43.000Z,99.99
2022-08-20T00:17:43.000Z,99.99
2022-08-20T00:18:43.000Z,99.99
2022-08-20T00:19:43.000Z,99.99
2022-08-20T00:20:43.000Z,99.99
2022-08-20T00:21:43.000Z,99.99
2022-08-20T00:22:43.000Z,99.99
2022-08-20T00:23:43.000Z,99.99
2022-08-20T00:24:43.000Z,99.99
2022-08-20T00:25:43.000Z,99.99
2022-08-20T00:26:43.000Z,99.99
2022-08-20T00:27:42.000Z,99.99
2022-08-20T00:28:42.000Z,99.99
2022-08-20T00:29:42.000Z,99.99
2022-08-20T00:30:42.000Z,99.99
2022-08-20T00:31:42.000Z,99.99
2022-08-20T00:32:42.000Z,99.99
2022-08-20T00:33:42.000Z,99.99
2022-08-20T00:34:42.000Z,99.99
2022-08-20T00:35:42.000Z,99.99
2022-08-20T00:36:42.000Z,99.99
2022-08-20T00:37:42.000Z,99.99
2022-08-20T00:38:42.000Z,99.99
2022-08-20T00:39:42.000Z,99.99
2022-08-20T00:40:42.000Z,99.99
2022-08-20T00:41:42.000Z,99.99
2022-08-20T00:42:42.000Z,99.99
2022-08-20T00:43:42.000Z,99.99
2022-08-20T00:44:42.000Z,99.99
2022-08-20T00:45:42.000Z,99.99
2022-08-20T00:46:42.000Z,99.99
2022-08-20T00:47:42.000Z,99.99
2022-08-20T00:48:42.000Z,99.99
2022-08-20T00:49:42.000Z,99.99
2022-08-20T00:50:42.000Z,99.99
2022-08-20T00:51:42.000Z,99.99
2022-08-20T00:52:42.000Z,99.99
2022-08-20T00:53:42.000Z,99.99
2022-08-20T00:54:42.000Z,99.99
2022-08-20T00:55:42.000Z,99.99
2022-08-20T00:56:42.000Z,99.99
2022-08-20T00:57:42.000Z,99.99
2022-08-20T00:58:42.000Z,99.99
2022-08-20T00:59:42.000Z,99.99
2022-08-20T01:00:42.000Z,99.99
2022-08-20T01:01:42.000Z,99.99
2022-08-20T01:02:42.000Z,99.99
2022-08-20T01:03:42.000Z,99.99
2022-08-20T01:04:42.000Z,99.99
2022-08-20T01:05:42.000Z,99.99
2022-08-20T01:06:42.000Z,99.99
2022-08-20T01:07:42.000Z,99.99
2022-08-20T01:08:42.000Z,99.99
2022-08-20T01:09:42.000Z,99.99
2022-08-20T01:10:42.000Z,99.99
2022-08-20T01:11:42.000Z,99.99
2022-08-20T01:12:42.000Z,99.99
2022-08-20T01:13:42.000Z,99.99
2022-08-20T01:14:42.000Z,99.99
2022-08-20T01:15:42.000Z,99.99
2022-08-20T01:16:42.000Z,99.99
2022-08-20T01:17:42.000Z,99.99
2022-08-20T01:18:42.000Z,99.99
2022-08-20T01:19:42.000Z,99.99
2022-08-20T01:20:42.000Z,99.99
2022-08-20T01:21:42.000Z,99.99
2022-08-20T01:22:42.000Z,99.99
2022-08-20T01:23:42.000Z,99.99
2022-08-20T01:24:42.000Z,99.99
2022-08-20T01:25:42.000Z,99.99
2022-08-20T01:26:42.000Z,99.99
2022-08-20T01:27:42.000Z,99.99
2022-08-20T01:28:42.000Z,99.99
2022-08-20T01:29:42.000Z,99.99
2022-08-20T01:30:42.000Z,99.99
2022-08-20T01:31:42.000Z,99.99
2022-08-20T01:32:42.000Z,99.99
2022-08-20T01:33:42.000Z,99.99
2022-08-20T01:34:42.000Z,99.99
2022-08-20T01:35:42.000Z,99.99
2022-08-20T01:36:42.000Z,99.99
2022-08-20T01:37:42.000Z,99.99
2022-08-20T01:38:42.000Z,99.99
2022-08-20T01:39:41.000Z,99.99
2022-08-20T01:40:41.000Z,99.99
2022-08-20T01:41:41.000Z,99.99
2022-08-20T01:42:41.000Z,99.99
2022-08-20T01:43:41.000Z,99.99
2022-08-20T01:44:41.000Z,99.99
2022-08-20T01:45:41.000Z,99.99
2022-08-20T01:46:41.000Z,99.99
2022-08-20T01:47:41.000Z,99.99
2022-08-20T01:48:41.000Z,99.99
2022-08-20T01:49:41.000Z,99.99
2022-08-20T01:50:41.000Z,99.99
2022-08-20T01:51:41.000Z,99.99
2022-08-20T01:52:41.000Z,99.99
2022-08-20T01:53:41.000Z,99.99
2022-08-20T01:53:41.000Z,99.99
2022-08-20T01:54:41.000Z,99.99
2022-08-20T01:54:41.000Z,99.99
2022-08-20T01:55:41.000Z,99.99
2022-08-20T01:55:41.000Z,99.99
2022-08-20T01:56:41.000Z,99.99
2022-08-20T01:56:41.000Z,99.99
2022-08-20T01:57:41.000Z,99.99
2022-08-20T01:57:41.000Z,99.99
2022-08-20T01:58:41.000Z,99.99
2022-08-20T01:59:41.000Z,99.99
2022-08-20T02:00:41.000Z,99.99
2022-08-20T02:01:41.000Z,99.99
2022-08-20T02:02:41.000Z,99.99
2022-08-20T02:03:41.000Z,99.99
2022-08-20T02:04:41.000Z,99.99
2022-08-20T02:05:41.000Z,99.99
2022-08-20T02:06:41.000Z,99.99
2022-08-20T02:07:41.000Z,99.99
2022-08-20T02:08:41.000Z,99.99
2022-08-20T02:09:41.000Z,99.99
2022-08-20T02:10:41.000Z,99.99
2022-08-20T02:11:41.000Z,99.99
2022-08-20T02:12:41.000Z,99.99
2022-08-20T02:13:41.000Z,99.99
2022-08-20T02:14:41.000Z,99.99
2022-08-20T02:15:41.000Z,99.99
2022-08-20T02:16:41.000Z,99.99
2022-08-20T02:17:41.000Z,99.99
2022-08-20T02:18:41.000Z,99.99
2022-08-20T02:19:41.000Z,99.99
2022-08-20T02:20:41.000Z,99.99
2022-08-20T02:21:41.000Z,99.99
2022-08-20T02:22:41.000Z,99.99
2022-08-20T02:23:41.000Z,99.99
2022-08-20T02:24:41.000Z,99.99
2022-08-20T02:25:41.000Z,99.99
2022-08-20T02:26:41.000Z,99.99
2022-08-20T02:27:41.000Z,99.99
2022-08-20T02:28:41.000Z,99.99
2022-08-20T02:28:41.000Z,99.99
2022-08-20T02:29:41.000Z,99.99
2022-08-20T02:29:41.000Z,99.99
2022-08-20T02:30:41.000Z,99.99
2022-08-20T02:30:41.000Z,99.99
2022-08-20T02:31:41.000Z,99.99
2022-08-20T02:31:41.000Z,99.99
2022-08-20T02:32:41.000Z,99.99
2022-08-20T02:32:41.000Z,99.99
2022-08-20T02:33:41.000Z,99.99
2022-08-20T02:34:41.000Z,99.99
2022-08-20T02:35:41.000Z,99.99
2022-08-20T02:36:41.000Z,99.99
2022-08-20T02:37:41.000Z,99.99
2022-08-20T02:38:41.000Z,99.99
2022-08-20T02:39:41.000Z,99.99
2022-08-20T02:40:41.000Z,99.99
2022-08-20T02:41:41.000Z,99.99
2022-08-20T02:42:41.000Z,99.99
2022-08-20T02:43:41.000Z,99.99
2022-08-20T02:44:41.000Z,99.99
2022-08-20T02:45:41.000Z,99.99
2022-08-20T02:46:41.000Z,99.99
2022-08-20T02:47:41.000Z,99.99
2022-08-20T02:48:41.000Z,99.99
2022-08-20T02:49:41.000Z,99.99
2022-08-20T02:50:41.000Z,99.99
2022-08-20T02:51:40.000Z,99.99
2022-08-20T02:52:40.000Z,99.99
2022-08-20T02:53:40.000Z,99.99
2022-08-20T02:54:40.000Z,99.99
2022-08-20T02:55:40.000Z,99.99
2022-08-20T02:56:40.000Z,99.99
2022-08-20T02:57:40.000Z,99.99
2022-08-20T02:58:40.000Z,99.99
2022-08-20T02:59:40.000Z,99.99
2022-08-20T03:00:40.000Z,99.99
2022-08-20T03:01:40.000Z,99.99
2022-08-20T03:02:40.000Z,99.99
2022-08-20T03:03:40.000Z,99.99
2022-08-20T03:04:40.000Z,99.99
2022-08-20T03:05:40.000Z,99.99
2022-08-20T03:06:40.000Z,99.99
2022-08-20T03:07:40.000Z,99.99
2022-08-20T03:08:40.000Z,99.99
2022-08-20T03:09:40.000Z,99.99
2022-08-20T03:10:40.000Z,99.99
2022-08-20T03:11:40.000Z,99.99
2022-08-20T03:12:40.000Z,99.99
2022-08-20T03:13:40.000Z,99.99
2022-08-20T03:14:40.000Z,99.99
2022-08-20T03:15:40.000Z,99.99
2022-08-20T03:16:40.000Z,99.99
2022-08-20T03:17:40.000Z,99.99
2022-08-20T03:18:40.000Z,99.99
2022-08-20T03:19:40.000Z,99.99
2022-08-20T03:20:40.000Z,99.99
2022-08-20T03:21:40.000Z,99.99
2022-08-20T03:22:40.000Z,99.99
2022-08-20T03:23:40.000Z,99.99
2022-08-20T03:24:40.000Z,99.99
2022-08-20T03:25:40.000Z,99.99
2022-08-20T03:26:40.000Z,99.99
2022-08-20T03:27:40.000Z,99.99
2022-08-20T03:28:40.000Z,99.99
2022-08-20T03:29:40.000Z,99.99
2022-08-20T03:30:40.000Z,99.99
2022-08-20T03:31:40.000Z,99.99
2022-08-20T03:32:40.000Z,99.99
2022-08-20T03:33:40.000Z,99.99
2022-08-20T03:34:40.000Z,99.99
2022-08-20T03:35:40.000Z,99.99
2022-08-20T03:36:40.000Z,99.99
2022-08-20T03:37:40.000Z,99.99
2022-08-20T03:38:40.000Z,99.99
2022-08-20T03:39:40.000Z,99.99
2022-08-20T03:40:40.000Z,99.99
2022-08-20T03:41:40.000Z,99.99
2022-08-20T03:42:40.000Z,99.99
2022-08-20T03:43:40.000Z,99.99
2022-08-20T03:44:40.000Z,99.99
2022-08-20T03:45:40.000Z,99.99
2022-08-20T03:46:40.000Z,99.99
2022-08-20T03:47:40.000Z,99.99
2022-08-20T03:48:40.000Z,99.99
2022-08-20T03:49:40.000Z,99.99
2022-08-20T03:50:40.000Z,99.99
2022-08-20T03:51:40.000Z,99.99
2022-08-20T03:52:40.000Z,99.99
2022-08-20T03:53:40.000Z,99.99
2022-08-20T03:54:40.000Z,99.99
2022-08-20T03:55:40.000Z,99.99
2022-08-20T03:56:40.000Z,99.99
2022-08-20T03:57:40.000Z,99.99
2022-08-20T03:58:40.000Z,99.99
2022-08-20T03:58:40.000Z,99.99
2022-08-20T03:59:40.000Z,99.99
2022-08-20T03:59:40.000Z,99.99
2022-08-20T04:00:40.000Z,99.99
2022-08-20T04:00:40.000Z,99.99
2022-08-20T04:01:40.000Z,99.99
2022-08-20T04:01:40.000Z,99.99
2022-08-20T04:02:40.000Z,99.99
2022-08-20T04:02:40.000Z,99.99
2022-08-20T04:03:39.000Z,99.99
2022-08-20T04:04:39.000Z,99.99
2022-08-20T04:05:39.000Z,99.99
2022-08-20T04:06:39.000Z,99.99
2022-08-20T04:07:39.000Z,99.99
2022-08-20T04:08:39.000Z,99.99
2022-08-20T04:09:39.000Z,99.99
2022-08-20T04:10:39.000Z,99.99
2022-08-20T04:11:39.000Z,99.99
2022-08-20T04:12:39.000Z,99.99
2022-08-20T04:13:39.000Z,99.99
2022-08-20T04:13:39.000Z,99.99
2022-08-20T04:14:39.000Z,99.99
2022-08-20T04:14:39.000Z,99.99
2022-08-20T04:15:39.000Z,99.99
2022-08-20T04:15:39.000Z,99.99
2022-08-20T04:16:39.000Z,99.99
2022-08-20T04:16:39.000Z,99.99
2022-08-20T04:17:39.000Z,99.99
2022-08-20T04:17:39.000Z,99.99
2022-08-20T04:18:39.000Z,99.99
2022-08-20T04:19:39.000Z,99.99
2022-08-20T04:20:39.000Z,99.99
2022-08-20T04:21:39.000Z,99.99
2022-08-20T04:22:39.000Z,99.99
2022-08-20T04:23:39.000Z,99.99
2022-08-20T04:24:39.000Z,99.99
2022-08-20T04:25:39.000Z,99.99
2022-08-20T04:26:39.000Z,99.99
2022-08-20T04:27:39.000Z,99.99
2022-08-20T04:28:39.000Z,99.99
2022-08-20T04:29:39.000Z,99.99
2022-08-20T04:30:39.000Z,99.99
2022-08-20T04:31:39.000Z,99.99
2022-08-20T04:32:39.000Z,99.99
2022-08-20T04:33:39.000Z,99.99
2022-08-20T04:34:39.000Z,99.99
2022-08-20T04:35:39.000Z,99.99
2022-08-20T04:36:39.000Z,99.99
2022-08-20T04:37:39.000Z,99.99
2022-08-20T04:38:39.000Z,99.99
2022-08-20T04:39:39.000Z,99.99
2022-08-20T04:40:39.000Z,99.99
2022-08-20T04:41:39.000Z,99.99
2022-08-20T04:42:39.000Z,99.99
2022-08-20T04:43:39.000Z,99.99
2022-08-20T04:44:39.000Z,99.99
2022-08-20T04:45:39.000Z,99.99
2022-08-20T04:46:39.000Z,99.99
2022-08-20T04:47:39.000Z,99.99
2022-08-20T04:48:39.000Z,99.99
2022-08-20T04:49:39.000Z,99.99
2022-08-20T04:50:39.000Z,99.99
2022-08-20T04:51:39.000Z,99.99
2022-08-20T04:52:39.000Z,99.99
2022-08-20T04:53:39.000Z,99.99
2022-08-20T04:54:39.000Z,99.99
2022-08-20T04:55:39.000Z,99.99
2022-08-20T04:56:39.000Z,99.99
2022-08-20T04:57:39.000Z,99.99
2022-08-20T04:58:39.000Z,99.99
2022-08-20T04:59:39.000Z,99.99
2022-08-20T05:00:39.000Z,99.99
2022-08-20T05:01:39.000Z,99.99
2022-08-20T05:02:39.000Z,99.99
2022-08-20T05:03:39.000Z,99.99
2022-08-20T05:04:39.000Z,99.99
2022-08-20T05:05:39.000Z,99.99
2022-08-20T05:06:39.000Z,99.99
2022-08-20T05:07:39.000Z,99.99
2022-08-20T05:08:39.000Z,99.99
2022-08-20T05:09:39.000Z,99.99
2022-08-20T05:10:39.000Z,99.99
2022-08-20T05:11:39.000Z,99.99
2022-08-20T05:12:39.000Z,99.99
2022-08-20T05:13:39.000Z,99.99
2022-08-20T05:14:39.000Z,99.99
2022-08-20T05:15:38.000Z,99.99
2022-08-20T05:16:38.000Z,99.99
2022-08-20T05:17:38.000Z,99.99
2022-08-20T05:18:38.000Z,99.99
2022-08-20T05:19:38.000Z,99.99
2022-08-20T05:20:38.000Z,99.99
2022-08-20T05:21:38.000Z,99.99
2022-08-20T05:22:38.000Z,99.99
2022-08-20T05:23:38.000Z,99.99
2022-08-20T05:23:38.000Z,99.99
2022-08-20T05:24:38.000Z,99.99
2022-08-20T05:24:38.000Z,99.99
2022-08-20T05:25:38.000Z,99.99
2022-08-20T05:25:38.000Z,99.99
2022-08-20T05:26:38.000Z,99.99
2022-08-20T05:26:38.000Z,99.99
2022-08-20T05:27:38.000Z,99.99
2022-08-20T05:27:38.000Z,99.99
2022-08-20T05:28:38.000Z,99.99
2022-08-20T05:29:38.000Z,99.99
2022-08-20T05:30:38.000Z,99.99
2022-08-20T05:31:38.000Z,99.99
2022-08-20T05:32:38.000Z,99.99
2022-08-20T05:33:38.000Z,99.99
2022-08-20T05:34:38.000Z,99.99
2022-08-20T05:35:38.000Z,99.99
2022-08-20T05:36:38.000Z,99.99
2022-08-20T05:37:38.000Z,99.99
2022-08-20T05:38:38.000Z,99.99
2022-08-20T05:39:38.000Z,99.99
2022-08-20T05:40:38.000Z,99.99
2022-08-20T05:41:38.000Z,99.99
2022-08-20T05:42:38.000Z,99.99
2022-08-20T05:43:38.000Z,99.99
2022-08-20T05:44:38.000Z,99.99
2022-08-20T05:45:38.000Z,99.99
2022-08-20T05:46:38.000Z,99.99
2022-08-20T05:47:38.000Z,99.99
2022-08-20T05:48:38.000Z,99.99
2022-08-20T05:49:38.000Z,99.99
2022-08-20T05:50:38.000Z,99.99
2022-08-20T05:51:38.000Z,99.99
2022-08-20T05:52:38.000Z,99.99
2022-08-20T05:53:38.000Z,99.99
2022-08-20T05:54:38.000Z,99.99
2022-08-20T05:55:38.000Z,99.99
2022-08-20T05:56:38.000Z,99.99
2022-08-20T05:57:38.000Z,99.99
2022-08-20T05:58:38.000Z,99.99
2022-08-20T05:59:38.000Z,99.99
2022-08-20T06:00:38.000Z,99.99
2022-08-20T06:01:38.000Z,99.99
2022-08-20T06:02:38.000Z,99.99
2022-08-20T06:03:38.000Z,99.99
2022-08-20T06:04:38.000Z,99.99
2022-08-20T06:05:38.000Z,99.99
2022-08-20T06:06:38.000Z,99.99
2022-08-20T06:07:38.000Z,99.99
2022-08-20T06:08:38.000Z,99.99
2022-08-20T06:09:38.000Z,99.99
2022-08-20T06:10:38.000Z,99.99
2022-08-20T06:11:38.000Z,99.99
2022-08-20T06:12:38.000Z,99.99
2022-08-20T06:13:38.000Z,99.99
2022-08-20T06:14:38.000Z,99.99
2022-08-20T06:15:38.000Z,99.99
2022-08-20T06:16:38.000Z,99.99
2022-08-20T06:17:38.000Z,99.99
2022-08-20T06:18:38.000Z,99.99
2022-08-20T06:18:38.000Z,99.99
2022-08-20T06:19:38.000Z,99.99
2022-08-20T06:19:38.000Z,99.99
2022-08-20T06:20:38.000Z,99.99
2022-08-20T06:20:38.000Z,99.99
2022-08-20T06:21:38.000Z,99.99
2022-08-20T06:21:38.000Z,99.99
2022-08-20T06:22:38.000Z,99.99
2022-08-20T06:22:38.000Z,99.99
2022-08-20T06:23:38.000Z,99.99
2022-08-20T06:24:38.000Z,99.99
2022-08-20T06:25:38.000Z,99.99
2022-08-20T06:26:38.000Z,99.99
2022-08-20T06:27:37.000Z,99.99
2022-08-20T06:28:37.000Z,99.99
2022-08-20T06:29:37.000Z,99.99
2022-08-20T06:30:37.000Z,99.99
2022-08-20T06:31:37.000Z,99.99
2022-08-20T06:32:37.000Z,99.99
2022-08-20T06:33:37.000Z,99.99
2022-08-20T06:34:37.000Z,99.99
2022-08-20T06:35:37.000Z,99.99
2022-08-20T06:36:37.000Z,99.99
2022-08-20T06:37:37.000Z,99.99
2022-08-20T06:38:37.000Z,99.99
2022-08-20T06:39:37.000Z,99.99
2022-08-20T06:40:37.000Z,99.99
2022-08-20T06:41:37.000Z,99.99
2022-08-20T06:42:37.000Z,99.99
2022-08-20T06:43:37.000Z,99.99
2022-08-20T06:44:37.000Z,99.99
2022-08-20T06:45:37.000Z,99.99
2022-08-20T06:46:37.000Z,99.99
2022-08-20T06:47:37.000Z,99.99
2022-08-20T06:48:37.000Z,99.99
2022-08-20T06:49:37.000Z,99.99
2022-08-20T06:50:37.000Z,99.99
2022-08-20T06:51:37.000Z,99.99
2022-08-20T06:52:37.000Z,99.99
2022-08-20T06:53:37.000Z,99.99
2022-08-20T06:54:37.000Z,99.99
2022-08-20T06:55:37.000Z,99.99
2022-08-20T06:56:37.000Z,99.99
2022-08-20T06:57:37.000Z,99.99
2022-08-20T06:58:37.000Z,99.99
2022-08-20T06:58:37.000Z,99.99
2022-08-20T06:59:37.000Z,99.99
2022-08-20T06:59:37.000Z,99.99
2022-08-20T07:00:37.000Z,99.99
2022-08-20T07:00:37.000Z,99.99
2022-08-20T07:01:37.000Z,99.99
2022-08-20T07:01:37.000Z,99.99
2022-08-20T07:02:37.000Z,99.99
2022-08-20T07:02:37.000Z,99.99
2022-08-20T07:03:37.000Z,99.99
2022-08-20T07:04:37.000Z,99.99
2022-08-20T07:05:37.000Z,99.99
2022-08-20T07:06:37.000Z,99.99
2022-08-20T07:07:37.000Z,99.99
2022-08-20T07:08:37.000Z,99.99
2022-08-20T07:09:37.000Z,99.99
2022-08-20T07:10:37.000Z,99.99
2022-08-20T07:11:37.000Z,99.99
2022-08-20T07:12:37.000Z,99.99
2022-08-20T07:13:37.000Z,99.99
2022-08-20T07:14:37.000Z,99.99
2022-08-20T07:15:37.000Z,99.99
2022-08-20T07:16:37.000Z,99.99
2022-08-20T07:17:37.000Z,99.99
2022-08-20T07:18:37.000Z,99.99
2022-08-20T07:19:37.000Z,99.99
2022-08-20T07:20:37.000Z,99.99
2022-08-20T07:21:37.000Z,99.99
2022-08-20T07:22:37.000Z,99.99
2022-08-20T07:23:37.000Z,99.99
2022-08-20T07:24:37.000Z,99.99
2022-08-20T07:25:37.000Z,99.99
2022-08-20T07:26:37.000Z,99.99
2022-08-20T07:27:37.000Z,99.99
2022-08-20T07:28:37.000Z,99.99
2022-08-20T07:29:37.000Z,99.99
2022-08-20T07:30:37.000Z,99.99
2022-08-20T07:31:37.000Z,99.99
2022-08-20T07:32:37.000Z,99.99
2022-08-20T07:33:37.000Z,99.99
2022-08-20T07:34:37.000Z,99.99
2022-08-20T07:35:37.000Z,99.99
2022-08-20T07:36:37.000Z,99.99
2022-08-20T07:37:37.000Z,99.99
2022-08-20T07:38:37.000Z,99.99
2022-08-20T07:39:36.000Z,99.99
2022-08-20T07:40:36.000Z,99.99
2022-08-20T07:41:36.000Z,99.99
2022-08-20T07:42:36.000Z,99.99
2022-08-20T07:43:36.000Z,99.99
2022-08-20T07:44:36.000Z,99.99
2022-08-20T07:45:36.000Z,99.99
2022-08-20T07:46:36.000Z,99.99
2022-08-20T07:47:36.000Z,99.99
2022-08-20T07:48:36.000Z,99.99
2022-08-20T07:49:36.000Z,99.99
2022-08-20T07:50:36.000Z,99.99
2022-08-20T07:51:36.000Z,99.99
2022-08-20T07:52:36.000Z,99.99
2022-08-20T07:53:36.000Z,99.99
2022-08-20T07:54:36.000Z,99.99
2022-08-20T07:55:36.000Z,99.99
2022-08-20T07:56:36.000Z,99.99
2022-08-20T07:57:36.000Z,99.99
2022-08-20T07:58:36.000Z,99.99
2022-08-20T07:59:36.000Z,99.99
2022-08-20T08:00:36.000Z,99.99
2022-08-20T08:01:36.000Z,99.99
2022-08-20T08:02:36.000Z,99.99
2022-08-20T08:03:36.000Z,99.99
2022-08-20T08:04:36.000Z,99.99
2022-08-20T08:05:36.000Z,99.99
2022-08-20T08:06:36.000Z,99.99
2022-08-20T08:07:36.000Z,99.99
2022-08-20T08:08:36.000Z,99.99
2022-08-20T08:09:36.000Z,99.99
2022-08-20T08:10:36.000Z,99.99
2022-08-20T08:11:36.000Z,99.99
2022-08-20T08:12:36.000Z,99.99
2022-08-20T08:13:36.000Z,99.99
2022-08-20T08:14:36.000Z,99.99
2022-08-20T08:15:36.000Z,99.99
2022-08-20T08:16:36.000Z,99.99
2022-08-20T08:17:36.000Z,99.99
2022-08-20T08:18:36.000Z,99.99
2022-08-20T08:19:36.000Z,99.99
2022-08-20T08:20:36.000Z,99.99
2022-08-20T08:21:36.000Z,99.99
2022-08-20T08:22:36.000Z,99.99
2022-08-20T08:23:36.000Z,99.99
2022-08-20T08:24:36.000Z,99.99
2022-08-20T08:25:36.000Z,99.99
2022-08-20T08:26:36.000Z,99.99
2022-08-20T08:27:36.000Z,99.99
2022-08-20T08:28:36.000Z,99.99
2022-08-20T08:29:36.000Z,99.99
2022-08-20T08:30:36.000Z,99.99
2022-08-20T08:31:36.000Z,99.99
2022-08-20T08:32:36.000Z,99.99
2022-08-20T08:33:36.000Z,99.99
2022-08-20T08:34:36.000Z,99.99
2022-08-20T08:35:36.000Z,99.99
2022-08-20T08:36:36.000Z,99.99
2022-08-20T08:37:36.000Z,99.99
2022-08-20T08:38:36.000Z,99.99
2022-08-20T08:39:36.000Z,99.99
2022-08-20T08:40:36.000Z,99.99
2022-08-20T08:41:36.000Z,99.99
2022-08-20T08:42:36.000Z,99.99
2022-08-20T08:43:36.000Z,99.99
2022-08-20T08:44:36.000Z,99.99
2022-08-20T08:45:36.000Z,99.99
2022-08-20T08:46:36.000Z,99.99
2022-08-20T08:47:36.000Z,99.99
2022-08-20T08:48:36.000Z,99.99
2022-08-20T08:49:36.000Z,99.99
2022-08-20T08:50:36.000Z,99.99
2022-08-20T08:51:35.000Z,99.99
2022-08-20T08:52:35.000Z,99.99
2022-08-20T08:53:35.000Z,99.99
2022-08-20T08:54:35.000Z,99.99
2022-08-20T08:55:35.000Z,99.99
2022-08-20T08:56:35.000Z,99.99
2022-08-20T08:57:35.000Z,99.99
2022-08-20T08:58:35.000Z,99.99
2022-08-20T08:59:35.000Z,99.99
2022-08-20T09:00:35.000Z,99.99
2022-08-20T09:01:35.000Z,99.99
2022-08-20T09:02:35.000Z,99.99
2022-08-20T09:03:35.000Z,99.99
2022-08-20T09:04:35.000Z,99.99
2022-08-20T09:05:35.000Z,99.99
2022-08-20T09:06:35.000Z,99.99
2022-08-20T09:07:35.000Z,99.99
2022-08-20T09:08:35.000Z,99.99
2022-08-20T09:09:35.000Z,99.99
2022-08-20T09:10:35.000Z,99.99
2022-08-20T09:11:35.000Z,99.99
2022-08-20T09:12:35.000Z,99.99
2022-08-20T09:13:35.000Z,99.99
2022-08-20T09:14:35.000Z,99.99
2022-08-20T09:15:35.000Z,99.99
2022-08-20T09:16:35.000Z,99.99
2022-08-20T09:17:35.000Z,99.99
2022-08-20T09:18:35.000Z,99.99
2022-08-20T09:19:35.000Z,99.99
2022-08-20T09:20:35.000Z,99.99
2022-08-20T09:21:35.000Z,99.99
2022-08-20T09:22:35.000Z,99.99
2022-08-20T09:23:35.000Z,99.99
2022-08-20T09:23:35.000Z,99.99
2022-08-20T09:24:35.000Z,99.99
2022-08-20T09:24:35.000Z,99.99
2022-08-20T09:25:35.000Z,99.99
2022-08-20T09:25:35.000Z,99.99
2022-08-20T09:26:35.000Z,99.99
2022-08-20T09:26:35.000Z,99.99
2022-08-20T09:27:35.000Z,99.99
2022-08-20T09:27:35.000Z,99.99
2022-08-20T09:28:35.000Z,99.99
2022-08-20T09:29:35.000Z,99.99
2022-08-20T09:30:35.000Z,99.99
2022-08-20T09:31:35.000Z,99.99
2022-08-20T09:32:35.000Z,99.99
2022-08-20T09:33:35.000Z,99.99
2022-08-20T09:34:35.000Z,99.99
2022-08-20T09:35:35.000Z,99.99
2022-08-20T09:36:35.000Z,99.99
2022-08-20T09:37:35.000Z,99.99
2022-08-20T09:38:35.000Z,99.99
2022-08-20T09:39:35.000Z,99.99
2022-08-20T09:40:35.000Z,99.99
2022-08-20T09:41:35.000Z,99.99
2022-08-20T09:42:35.000Z,99.99
2022-08-20T09:43:35.000Z,99.99
2022-08-20T09:44:35.000Z,99.99
2022-08-20T09:45:35.000Z,99.99
2022-08-20T09:46:35.000Z,99.99
2022-08-20T09:47:35.000Z,99.99
2022-08-20T09:48:35.000Z,99.99
2022-08-20T09:49:35.000Z,99.99
2022-08-20T09:50:35.000Z,99.99
2022-08-20T09:51:35.000Z,99.99
2022-08-20T09:52:35.000Z,99.99
2022-08-20T09:53:35.000Z,99.99
2022-08-20T09:54:35.000Z,99.99
2022-08-20T09:55:35.000Z,99.99
2022-08-20T09:56:35.000Z,99.99
2022-08-20T09:57:35.000Z,99.99
2022-08-20T09:58:35.000Z,99.99
2022-08-20T09:59:35.000Z,99.99
2022-08-20T10:00:35.000Z,99.99
2022-08-20T10:01:35.000Z,99.99
2022-08-20T10:02:35.000Z,99.99
2022-08-20T10:03:34.000Z,99.99
2022-08-20T10:04:34.000Z,99.99
2022-08-20T10:05:34.000Z,99.37
2022-08-20T10:06:34.000Z,99.98
2022-08-20T10:07:34.000Z,99.98
2022-08-20T10:08:34.000Z,99.77
2022-08-20T10:09:34.000Z,99.99
2022-08-20T10:10:34.000Z,99.99
2022-08-20T10:11:34.000Z,99.99
2022-08-20T10:12:34.000Z,99.99
2022-08-20T10:13:34.000Z,99.99
2022-08-20T10:14:34.000Z,99.99
2022-08-20T10:15:34.000Z,99.99
2022-08-20T10:16:34.000Z,99.99
2022-08-20T10:17:34.000Z,99.99
2022-08-20T10:18:34.000Z,99.99
2022-08-20T10:19:34.000Z,99.99
2022-08-20T10:20:34.000Z,99.99
2022-08-20T10:21:34.000Z,99.99
2022-08-20T10:22:34.000Z,99.99
2022-08-20T10:23:34.000Z,99.99
2022-08-20T10:24:34.000Z,99.99
2022-08-20T10:25:34.000Z,99.99
2022-08-20T10:26:34.000Z,99.99
2022-08-20T10:27:34.000Z,99.99
2022-08-20T10:28:34.000Z,99.99
2022-08-20T10:29:34.000Z,99.99
2022-08-20T10:30:34.000Z,99.99
2022-08-20T10:31:34.000Z,99.99
2022-08-20T10:32:34.000Z,99.99
2022-08-20T10:33:34.000Z,99.99
2022-08-20T10:34:34.000Z,99.99
2022-08-20T10:35:34.000Z,99.99
2022-08-20T10:36:34.000Z,99.83
2022-08-20T10:37:34.000Z,99.99
2022-08-20T10:38:34.000Z,99.99
2022-08-20T10:39:34.000Z,99.99
2022-08-20T10:40:34.000Z,99.99
2022-08-20T10:41:34.000Z,99.99
2022-08-20T10:42:34.000Z,99.99
2022-08-20T10:43:34.000Z,99.99
2022-08-20T10:44:34.000Z,99.99
2022-08-20T10:45:34.000Z,99.99
2022-08-20T10:46:34.000Z,99.99
2022-08-20T10:47:34.000Z,99.99
2022-08-20T10:48:34.000Z,99.99
2022-08-20T10:49:34.000Z,99.99
2022-08-20T10:50:34.000Z,99.99
2022-08-20T10:51:34.000Z,99.99
2022-08-20T10:52:34.000Z,99.99
2022-08-20T10:53:34.000Z,99.99
2022-08-20T10:54:34.000Z,99.99
2022-08-20T10:55:34.000Z,99.99
2022-08-20T10:56:34.000Z,99.99
2022-08-20T10:57:34.000Z,99.99
2022-08-20T10:58:34.000Z,99.99
2022-08-20T10:59:34.000Z,99.99
2022-08-20T11:00:34.000Z,99.99
2022-08-20T11:01:34.000Z,99.99
2022-08-20T11:02:34.000Z,99.99
2022-08-20T11:03:34.000Z,99.99
2022-08-20T11:04:34.000Z,99.99
2022-08-20T11:05:34.000Z,99.99
2022-08-20T11:06:34.000Z,99.99
2022-08-20T11:07:34.000Z,99.83
2022-08-20T11:08:34.000Z,99.63
2022-08-20T11:09:34.000Z,99.73
2022-08-20T11:10:34.000Z,99.78
2022-08-20T11:11:34.000Z,99.68
2022-08-20T11:12:34.000Z,99.88
2022-08-20T11:13:34.000Z,98.98
2022-08-20T11:14:34.000Z,99.18
2022-08-20T11:15:33.000Z,99.58
2022-08-20T11:16:33.000Z,99.68
2022-08-20T11:17:33.000Z,99.28
2022-08-20T11:18:33.000Z,99.28
2022-08-20T11:19:33.000Z,99.33
2022-08-20T11:20:33.000Z,99.63
2022-08-20T11:21:33.000Z,99.63
2022-08-20T11:22:33.000Z,99.93
2022-08-20T11:23:33.000Z,99.63
2022-08-20T11:24:33.000Z,98.53
2022-08-20T11:25:33.000Z,97.99
2022-08-20T11:26:33.000Z,98.43
2022-08-20T11:27:33.000Z,96.18
2022-08-20T11:28:33.000Z,97.28
2022-08-20T11:29:33.000Z,97.18
2022-08-20T11:30:33.000Z,96.28
2022-08-20T11:31:33.000Z,96.48
2022-08-20T11:32:33.000Z,96.48
2022-08-20T11:33:33.000Z,96.88
2022-08-20T11:34:33.000Z,97.08
2022-08-20T11:35:33.000Z,95.88
2022-08-20T11:36:33.000Z,96.58
2022-08-20T11:37:33.000Z,96.08
2022-08-20T11:38:33.000Z,96.73
2022-08-20T11:38:33.000Z,96.73
2022-08-20T11:39:33.000Z,96.44
2022-08-20T11:39:33.000Z,96.44
2022-08-20T11:40:33.000Z,96.64
2022-08-20T11:40:33.000Z,96.64
2022-08-20T11:41:33.000Z,97.14
2022-08-20T11:41:33.000Z,97.14
2022-08-20T11:42:33.000Z,96.34
2022-08-20T11:42:33.000Z,96.34
2022-08-20T11:43:33.000Z,96.44
2022-08-20T11:44:33.000Z,96.53
2022-08-20T11:45:33.000Z,96.49
2022-08-20T11:46:33.000Z,93.99
2022-08-20T11:47:33.000Z,94.09
2022-08-20T11:48:33.000Z,94.79
2022-08-20T11:49:33.000Z,94.69
2022-08-20T11:50:33.000Z,94.29
2022-08-20T11:51:33.000Z,94.19
2022-08-20T11:52:33.000Z,94.99
2022-08-20T11:53:33.000Z,94.99
2022-08-20T11:54:33.000Z,93.79
2022-08-20T11:55:33.000Z,93.99
2022-08-20T11:56:33.000Z,92.79
2022-08-20T11:57:33.000Z,93.79
2022-08-20T11:58:33.000Z,93.19
2022-08-20T11:59:33.000Z,93.99
2022-08-20T12:00:33.000Z,94.49
2022-08-20T12:01:33.000Z,93.89
2022-08-20T12:02:33.000Z,93.99
2022-08-20T12:03:33.000Z,93.99
2022-08-20T12:04:33.000Z,94.19
2022-08-20T12:05:33.000Z,94.89
2022-08-20T12:06:33.000Z,95.19
2022-08-20T12:07:33.000Z,95.49